sensor_id;sensor_type;location;lat;lon;timestamp;pressure;altitude;pressure_sealevel;temperature;humidity
21504;BME280;10913;51.992;9.228;2023-07-13T00:02:18;100073.72;;;20.18;84.84
21504;BME280;10913;51.992;9.228;2023-07-13T00:04:44;100086.44;;;20.15;84.81
21504;BME280;10913;51.992;9.228;2023-07-13T00:07:09;100087.53;;;20.11;84.83
21504;BME280;10913;51.992;9.228;2023-07-13T00:09:35;100089.34;;;20.10;83.70
21504;BME280;10913;51.992;9.228;2023-07-13T00:12:01;100088.69;;;20.05;84.04
21504;BME280;10913;51.992;9.228;2023-07-13T00:14:28;100099.56;;;20.02;83.92
21504;BME280;10913;51.992;9.228;2023-07-13T00:16:54;100098.00;;;19.98;84.07
21504;BME280;10913;51.992;9.228;2023-07-13T00:19:20;100096.41;;;19.94;84.29
21504;BME280;10913;51.992;9.228;2023-07-13T00:21:45;100096.56;;;19.91;83.76
21504;BME280;10913;51.992;9.228;2023-07-13T00:24:13;100095.81;;;19.87;83.83
21504;BME280;10913;51.992;9.228;2023-07-13T00:26:40;100084.44;;;19.82;83.86
21504;BME280;10913;51.992;9.228;2023-07-13T00:29:05;100095.41;;;19.78;83.93
21504;BME280;10913;51.992;9.228;2023-07-13T00:31:34;100098.38;;;19.72;83.83
21504;BME280;10913;51.992;9.228;2023-07-13T00:34:00;100100.34;;;19.68;83.27
21504;BME280;10913;51.992;9.228;2023-07-13T00:36:25;100098.88;;;19.61;83.22
21504;BME280;10913;51.992;9.228;2023-07-13T00:38:51;100106.28;;;19.56;83.53
21504;BME280;10913;51.992;9.228;2023-07-13T00:41:18;100092.25;;;19.49;83.60
21504;BME280;10913;51.992;9.228;2023-07-13T00:43:43;100091.47;;;19.47;83.60
21504;BME280;10913;51.992;9.228;2023-07-13T00:46:19;100091.72;;;19.41;84.17
21504;BME280;10913;51.992;9.228;2023-07-13T00:48:46;100091.91;;;19.38;83.73
21504;BME280;10913;51.992;9.228;2023-07-13T00:51:13;100096.53;;;19.35;83.66
21504;BME280;10913;51.992;9.228;2023-07-13T00:53:41;100091.28;;;19.32;83.59
21504;BME280;10913;51.992;9.228;2023-07-13T00:56:06;100088.88;;;19.25;83.64
21504;BME280;10913;51.992;9.228;2023-07-13T00:58:32;100093.81;;;19.16;84.19
21504;BME280;10913;51.992;9.228;2023-07-13T01:00:58;100086.13;;;19.08;84.14
21504;BME280;10913;51.992;9.228;2023-07-13T01:03:24;100091.78;;;19.01;84.69
21504;BME280;10913;51.992;9.228;2023-07-13T01:05:49;100083.25;;;18.92;85.07
21504;BME280;10913;51.992;9.228;2023-07-13T01:08:15;100088.06;;;18.84;85.40
21504;BME280;10913;51.992;9.228;2023-07-13T01:10:41;100087.56;;;18.76;85.58
21504;BME280;10913;51.992;9.228;2023-07-13T01:13:08;100088.88;;;18.66;85.91
21504;BME280;10913;51.992;9.228;2023-07-13T01:15:43;100088.44;;;18.55;86.17
21504;BME280;10913;51.992;9.228;2023-07-13T01:18:38;100094.91;;;18.49;86.61
21504;BME280;10913;51.992;9.228;2023-07-13T01:21:04;100088.69;;;18.49;86.48
21504;BME280;10913;51.992;9.228;2023-07-13T01:23:31;100094.03;;;18.49;86.15
21504;BME280;10913;51.992;9.228;2023-07-13T01:25:58;100089.56;;;18.49;85.83
21504;BME280;10913;51.992;9.228;2023-07-13T01:28:24;100086.94;;;18.48;85.84
21504;BME280;10913;51.992;9.228;2023-07-13T01:30:52;100096.78;;;18.47;85.77
21504;BME280;10913;51.992;9.228;2023-07-13T01:33:18;100089.81;;;18.43;85.83
21504;BME280;10913;51.992;9.228;2023-07-13T01:35:45;100097.25;;;18.37;86.33
21504;BME280;10913;51.992;9.228;2023-07-13T01:38:12;100089.47;;;18.31;86.28
21504;BME280;10913;51.992;9.228;2023-07-13T01:40:38;100093.19;;;18.27;86.66
21504;BME280;10913;51.992;9.228;2023-07-13T01:43:04;100096.88;;;18.24;86.77
21504;BME280;10913;51.992;9.228;2023-07-13T01:45:29;100098.78;;;18.20;86.52
21504;BME280;10913;51.992;9.228;2023-07-13T01:47:55;100097.06;;;18.19;87.23
21504;BME280;10913;51.992;9.228;2023-07-13T01:50:21;100099.88;;;18.16;87.13
21504;BME280;10913;51.992;9.228;2023-07-13T01:52:46;100110.69;;;18.13;87.08
21504;BME280;10913;51.992;9.228;2023-07-13T01:55:11;100105.53;;;18.09;87.61
21504;BME280;10913;51.992;9.228;2023-07-13T01:57:37;100109.31;;;18.03;87.44
21504;BME280;10913;51.992;9.228;2023-07-13T02:00:04;100111.38;;;17.97;87.65
21504;BME280;10913;51.992;9.228;2023-07-13T02:02:30;100099.25;;;17.88;88.14
21504;BME280;10913;51.992;9.228;2023-07-13T02:04:56;100101.16;;;17.84;88.36
21504;BME280;10913;51.992;9.228;2023-07-13T02:07:22;100114.63;;;17.81;88.66
21504;BME280;10913;51.992;9.228;2023-07-13T02:09:47;100104.16;;;17.77;88.57
21504;BME280;10913;51.992;9.228;2023-07-13T02:12:12;100103.41;;;17.73;88.77
21504;BME280;10913;51.992;9.228;2023-07-13T02:14:38;100101.78;;;17.69;89.12
21504;BME280;10913;51.992;9.228;2023-07-13T02:17:04;100104.50;;;17.68;89.00
21504;BME280;10913;51.992;9.228;2023-07-13T02:19:30;100102.75;;;17.67;89.33
21504;BME280;10913;51.992;9.228;2023-07-13T02:21:55;100096.59;;;17.65;88.99
21504;BME280;10913;51.992;9.228;2023-07-13T02:24:21;100099.34;;;17.62;88.13
21504;BME280;10913;51.992;9.228;2023-07-13T02:26:46;100112.97;;;17.55;88.63
21504;BME280;10913;51.992;9.228;2023-07-13T02:29:12;100105.06;;;17.52;88.82
21504;BME280;10913;51.992;9.228;2023-07-13T02:31:37;100113.34;;;17.45;89.35
21504;BME280;10913;51.992;9.228;2023-07-13T02:34:03;100117.94;;;17.41;89.67
21504;BME280;10913;51.992;9.228;2023-07-13T02:36:29;100112.75;;;17.38;90.17
21504;BME280;10913;51.992;9.228;2023-07-13T02:38:55;100098.41;;;17.39;89.73
21504;BME280;10913;51.992;9.228;2023-07-13T02:41:20;100093.94;;;17.40;89.52
21504;BME280;10913;51.992;9.228;2023-07-13T02:43:46;100098.41;;;17.39;89.30
21504;BME280;10913;51.992;9.228;2023-07-13T02:46:11;100094.16;;;17.35;88.77
21504;BME280;10913;51.992;9.228;2023-07-13T02:48:38;100098.78;;;17.30;89.23
21504;BME280;10913;51.992;9.228;2023-07-13T02:51:04;100088.44;;;17.21;89.89
21504;BME280;10913;51.992;9.228;2023-07-13T02:53:30;100095.00;;;17.12;90.45
21504;BME280;10913;51.992;9.228;2023-07-13T02:55:55;100100.56;;;17.06;90.62
21504;BME280;10913;51.992;9.228;2023-07-13T02:58:20;100098.28;;;16.96;91.42
21504;BME280;10913;51.992;9.228;2023-07-13T03:00:47;100107.31;;;16.92;91.37
21504;BME280;10913;51.992;9.228;2023-07-13T03:03:13;100115.59;;;16.84;91.89
21504;BME280;10913;51.992;9.228;2023-07-13T03:05:42;100118.56;;;16.76;92.52
21504;BME280;10913;51.992;9.228;2023-07-13T03:08:09;100121.31;;;16.73;93.15
21504;BME280;10913;51.992;9.228;2023-07-13T03:10:34;100131.06;;;16.74;92.91
21504;BME280;10913;51.992;9.228;2023-07-13T03:13:00;100122.97;;;16.77;93.05
21504;BME280;10913;51.992;9.228;2023-07-13T03:15:25;100122.88;;;16.79;92.64
21504;BME280;10913;51.992;9.228;2023-07-13T03:17:51;100128.13;;;16.82;92.70
21504;BME280;10913;51.992;9.228;2023-07-13T03:20:17;100126.16;;;16.87;93.05
21504;BME280;10913;51.992;9.228;2023-07-13T03:22:42;100127.81;;;16.91;93.55
21504;BME280;10913;51.992;9.228;2023-07-13T03:25:08;100121.44;;;16.95;93.28
21504;BME280;10913;51.992;9.228;2023-07-13T03:27:33;100128.47;;;16.98;92.49
21504;BME280;10913;51.992;9.228;2023-07-13T03:29:58;100132.16;;;16.94;92.61
21504;BME280;10913;51.992;9.228;2023-07-13T03:32:24;100125.19;;;16.90;92.88
21504;BME280;10913;51.992;9.228;2023-07-13T03:34:49;100127.03;;;16.87;93.40
21504;BME280;10913;51.992;9.228;2023-07-13T03:37:15;100120.00;;;16.85;92.83
21504;BME280;10913;51.992;9.228;2023-07-13T03:39:40;100122.78;;;16.82;92.99
21504;BME280;10913;51.992;9.228;2023-07-13T03:42:06;100123.69;;;16.81;93.42
21504;BME280;10913;51.992;9.228;2023-07-13T03:44:31;100129.09;;;16.79;94.22
21504;BME280;10913;51.992;9.228;2023-07-13T03:46:57;100130.72;;;16.83;94.60
21504;BME280;10913;51.992;9.228;2023-07-13T03:49:22;100130.53;;;16.90;94.16
21504;BME280;10913;51.992;9.228;2023-07-13T03:51:48;100116.25;;;16.91;93.44
21504;BME280;10913;51.992;9.228;2023-07-13T03:54:13;100120.66;;;16.92;92.22
21504;BME280;10913;51.992;9.228;2023-07-13T03:56:39;100114.47;;;16.91;92.26
21504;BME280;10913;51.992;9.228;2023-07-13T03:59:04;100118.97;;;16.89;91.54
21504;BME280;10913;51.992;9.228;2023-07-13T04:01:30;100129.66;;;16.89;91.72
21504;BME280;10913;51.992;9.228;2023-07-13T04:03:56;100127.03;;;16.87;92.25
21504;BME280;10913;51.992;9.228;2023-07-13T04:06:29;100136.88;;;16.85;92.56
21504;BME280;10913;51.992;9.228;2023-07-13T04:08:57;100137.00;;;16.82;92.75
21504;BME280;10913;51.992;9.228;2023-07-13T04:11:25;100137.97;;;16.80;93.41
21504;BME280;10913;51.992;9.228;2023-07-13T04:13:51;100140.53;;;16.83;93.46
21504;BME280;10913;51.992;9.228;2023-07-13T04:16:18;100146.63;;;16.86;93.06
21504;BME280;10913;51.992;9.228;2023-07-13T04:18:44;100151.00;;;16.89;92.96
21504;BME280;10913;51.992;9.228;2023-07-13T04:21:09;100144.69;;;16.92;93.14
21504;BME280;10913;51.992;9.228;2023-07-13T04:23:36;100148.22;;;16.92;92.63
21504;BME280;10913;51.992;9.228;2023-07-13T04:26:01;100150.03;;;16.92;93.18
21504;BME280;10913;51.992;9.228;2023-07-13T04:28:27;100151.66;;;16.96;93.28
21504;BME280;10913;51.992;9.228;2023-07-13T04:30:53;100147.16;;;16.98;93.38
21504;BME280;10913;51.992;9.228;2023-07-13T04:33:19;100149.69;;;17.01;93.45
21504;BME280;10913;51.992;9.228;2023-07-13T04:35:51;100146.97;;;17.02;93.95
21504;BME280;10913;51.992;9.228;2023-07-13T04:38:23;100152.25;;;17.04;94.18
21504;BME280;10913;51.992;9.228;2023-07-13T04:40:50;100156.66;;;17.05;94.39
21504;BME280;10913;51.992;9.228;2023-07-13T04:43:16;100157.53;;;17.05;94.88
21504;BME280;10913;51.992;9.228;2023-07-13T04:45:41;100150.41;;;17.06;95.36
21504;BME280;10913;51.992;9.228;2023-07-13T04:48:07;100153.06;;;17.06;96.24
21504;BME280;10913;51.992;9.228;2023-07-13T04:50:32;100158.50;;;17.03;96.61
21504;BME280;10913;51.992;9.228;2023-07-13T04:52:58;100154.19;;;16.99;96.00
21504;BME280;10913;51.992;9.228;2023-07-13T04:55:24;100153.16;;;17.03;95.98
21504;BME280;10913;51.992;9.228;2023-07-13T04:57:49;100156.56;;;17.08;95.67
21504;BME280;10913;51.992;9.228;2023-07-13T05:00:15;100159.84;;;17.16;94.77
21504;BME280;10913;51.992;9.228;2023-07-13T05:02:44;100158.78;;;17.20;92.97
21504;BME280;10913;51.992;9.228;2023-07-13T05:05:11;100153.16;;;17.28;89.59
21504;BME280;10913;51.992;9.228;2023-07-13T05:07:36;100159.28;;;17.31;87.38
21504;BME280;10913;51.992;9.228;2023-07-13T05:10:02;100161.03;;;17.32;87.92
21504;BME280;10913;51.992;9.228;2023-07-13T05:12:29;100162.66;;;17.36;88.53
21504;BME280;10913;51.992;9.228;2023-07-13T05:14:54;100156.16;;;17.43;88.33
21504;BME280;10913;51.992;9.228;2023-07-13T05:17:20;100155.94;;;17.49;88.50
21504;BME280;10913;51.992;9.228;2023-07-13T05:19:45;100152.31;;;17.50;87.66
21504;BME280;10913;51.992;9.228;2023-07-13T05:22:10;100160.13;;;17.56;87.16
21504;BME280;10913;51.992;9.228;2023-07-13T05:24:36;100165.41;;;17.58;86.64
21504;BME280;10913;51.992;9.228;2023-07-13T05:27:01;100161.00;;;17.57;85.50
21504;BME280;10913;51.992;9.228;2023-07-13T05:29:27;100163.47;;;17.62;85.72
21504;BME280;10913;51.992;9.228;2023-07-13T05:31:52;100157.94;;;17.68;86.44
21504;BME280;10913;51.992;9.228;2023-07-13T05:34:18;100157.81;;;17.71;86.03
21504;BME280;10913;51.992;9.228;2023-07-13T05:36:43;100157.72;;;17.74;85.49
21504;BME280;10913;51.992;9.228;2023-07-13T05:39:09;100159.34;;;17.78;85.00
21504;BME280;10913;51.992;9.228;2023-07-13T05:41:35;100161.75;;;17.84;84.46
21504;BME280;10913;51.992;9.228;2023-07-13T05:44:00;100157.97;;;17.89;84.32
21504;BME280;10913;51.992;9.228;2023-07-13T05:46:26;100160.38;;;17.97;84.03
21504;BME280;10913;51.992;9.228;2023-07-13T05:48:51;100157.44;;;18.03;83.75
21504;BME280;10913;51.992;9.228;2023-07-13T05:51:17;100167.03;;;18.09;82.90
21504;BME280;10913;51.992;9.228;2023-07-13T05:53:42;100167.72;;;18.14;83.28
21504;BME280;10913;51.992;9.228;2023-07-13T05:56:07;100166.56;;;18.19;83.04
21504;BME280;10913;51.992;9.228;2023-07-13T05:58:33;100176.09;;;18.27;82.92
21504;BME280;10913;51.992;9.228;2023-07-13T06:01:01;100174.25;;;18.29;83.08
21504;BME280;10913;51.992;9.228;2023-07-13T06:03:27;100178.53;;;18.33;81.90
21504;BME280;10913;51.992;9.228;2023-07-13T06:05:52;100172.16;;;18.37;82.75
21504;BME280;10913;51.992;9.228;2023-07-13T06:08:18;100173.69;;;18.42;82.23
21504;BME280;10913;51.992;9.228;2023-07-13T06:10:43;100183.31;;;18.46;82.02
21504;BME280;10913;51.992;9.228;2023-07-13T06:13:08;100183.16;;;18.51;81.72
21504;BME280;10913;51.992;9.228;2023-07-13T06:15:33;100182.78;;;18.60;81.65
21504;BME280;10913;51.992;9.228;2023-07-13T06:17:59;100188.88;;;18.64;81.12
21504;BME280;10913;51.992;9.228;2023-07-13T06:20:24;100185.78;;;18.74;81.04
21504;BME280;10913;51.992;9.228;2023-07-13T06:22:50;100202.25;;;18.85;80.82
21504;BME280;10913;51.992;9.228;2023-07-13T06:25:15;100212.56;;;18.95;80.34
21504;BME280;10913;51.992;9.228;2023-07-13T06:27:40;100206.06;;;19.00;80.69
21504;BME280;10913;51.992;9.228;2023-07-13T06:30:06;100209.50;;;19.04;80.87
21504;BME280;10913;51.992;9.228;2023-07-13T06:32:32;100207.63;;;19.06;80.79
21504;BME280;10913;51.992;9.228;2023-07-13T06:34:57;100217.28;;;19.10;80.50
21504;BME280;10913;51.992;9.228;2023-07-13T06:37:22;100218.88;;;19.14;80.26
21504;BME280;10913;51.992;9.228;2023-07-13T06:39:48;100226.50;;;19.23;80.08
21504;BME280;10913;51.992;9.228;2023-07-13T06:42:13;100219.88;;;19.32;80.84
21504;BME280;10913;51.992;9.228;2023-07-13T06:44:38;100231.06;;;19.41;79.76
21504;BME280;10913;51.992;9.228;2023-07-13T06:47:04;100235.22;;;19.48;79.53
21504;BME280;10913;51.992;9.228;2023-07-13T06:49:29;100225.28;;;19.52;78.18
21504;BME280;10913;51.992;9.228;2023-07-13T06:51:55;100227.88;;;19.53;78.61
21504;BME280;10913;51.992;9.228;2023-07-13T06:54:20;100222.53;;;19.53;78.05
21504;BME280;10913;51.992;9.228;2023-07-13T06:56:45;100231.44;;;19.54;78.22
21504;BME280;10913;51.992;9.228;2023-07-13T06:59:11;100235.78;;;19.56;77.86
21504;BME280;10913;51.992;9.228;2023-07-13T07:01:36;100233.75;;;19.61;77.53
21504;BME280;10913;51.992;9.228;2023-07-13T07:04:03;100231.63;;;19.70;77.43
21504;BME280;10913;51.992;9.228;2023-07-13T07:06:28;100228.13;;;19.68;77.27
21504;BME280;10913;51.992;9.228;2023-07-13T07:08:54;100229.47;;;19.78;77.33
21504;BME280;10913;51.992;9.228;2023-07-13T07:11:22;100239.47;;;19.93;77.53
21504;BME280;10913;51.992;9.228;2023-07-13T07:13:49;100234.63;;;20.01;77.55
21504;BME280;10913;51.992;9.228;2023-07-13T07:16:15;100231.59;;;20.09;76.66
21504;BME280;10913;51.992;9.228;2023-07-13T07:18:40;100228.84;;;20.10;76.25
21504;BME280;10913;51.992;9.228;2023-07-13T07:21:06;100241.22;;;20.13;76.35
21504;BME280;10913;51.992;9.228;2023-07-13T07:23:31;100236.28;;;20.22;76.03
21504;BME280;10913;51.992;9.228;2023-07-13T07:25:57;100241.75;;;20.40;75.90
21504;BME280;10913;51.992;9.228;2023-07-13T07:28:22;100244.59;;;20.55;75.81
21504;BME280;10913;51.992;9.228;2023-07-13T07:30:48;100252.25;;;20.63;75.11
21504;BME280;10913;51.992;9.228;2023-07-13T07:33:14;100243.63;;;20.75;75.29
21504;BME280;10913;51.992;9.228;2023-07-13T07:35:42;100245.97;;;20.81;75.63
21504;BME280;10913;51.992;9.228;2023-07-13T07:38:08;100240.69;;;20.80;75.05
21504;BME280;10913;51.992;9.228;2023-07-13T07:40:39;100244.78;;;20.70;74.89
21504;BME280;10913;51.992;9.228;2023-07-13T07:43:06;100240.44;;;20.67;75.61
21504;BME280;10913;51.992;9.228;2023-07-13T07:45:31;100233.66;;;20.77;75.61
21504;BME280;10913;51.992;9.228;2023-07-13T07:47:57;100240.00;;;20.93;75.13
21504;BME280;10913;51.992;9.228;2023-07-13T07:50:27;100237.63;;;21.05;75.32
21504;BME280;10913;51.992;9.228;2023-07-13T07:52:53;100228.09;;;21.16;74.62
21504;BME280;10913;51.992;9.228;2023-07-13T07:55:19;100235.84;;;21.22;74.69
21504;BME280;10913;51.992;9.228;2023-07-13T07:57:44;100227.31;;;21.14;74.51
21504;BME280;10913;51.992;9.228;2023-07-13T08:00:10;100232.00;;;21.28;74.47
21504;BME280;10913;51.992;9.228;2023-07-13T08:02:36;100236.50;;;21.27;74.54
21504;BME280;10913;51.992;9.228;2023-07-13T08:05:01;100237.28;;;21.29;74.81
21504;BME280;10913;51.992;9.228;2023-07-13T08:07:26;100233.50;;;21.34;74.74
21504;BME280;10913;51.992;9.228;2023-07-13T08:09:53;100242.34;;;21.36;74.83
21504;BME280;10913;51.992;9.228;2023-07-13T08:12:18;100245.34;;;21.29;75.26
21504;BME280;10913;51.992;9.228;2023-07-13T08:14:44;100250.50;;;21.34;74.44
21504;BME280;10913;51.992;9.228;2023-07-13T08:17:09;100259.00;;;21.42;73.89
21504;BME280;10913;51.992;9.228;2023-07-13T08:19:34;100254.75;;;21.55;74.42
21504;BME280;10913;51.992;9.228;2023-07-13T08:22:00;100253.81;;;21.56;73.80
21504;BME280;10913;51.992;9.228;2023-07-13T08:24:25;100254.56;;;21.58;73.87
21504;BME280;10913;51.992;9.228;2023-07-13T08:26:51;100255.44;;;21.59;74.61
21504;BME280;10913;51.992;9.228;2023-07-13T08:29:18;100260.25;;;21.70;74.01
21504;BME280;10913;51.992;9.228;2023-07-13T08:31:43;100263.50;;;21.76;73.82
21504;BME280;10913;51.992;9.228;2023-07-13T08:34:10;100269.00;;;21.90;74.16
21504;BME280;10913;51.992;9.228;2023-07-13T08:36:35;100266.13;;;22.11;74.75
21504;BME280;10913;51.992;9.228;2023-07-13T08:39:01;100263.00;;;22.18;73.28
21504;BME280;10913;51.992;9.228;2023-07-13T08:41:27;100260.00;;;22.40;73.55
21504;BME280;10913;51.992;9.228;2023-07-13T08:43:57;100266.94;;;22.60;73.00
21504;BME280;10913;51.992;9.228;2023-07-13T08:46:36;100266.34;;;22.55;71.83
21504;BME280;10913;51.992;9.228;2023-07-13T08:49:07;100251.66;;;22.60;72.66
21504;BME280;10913;51.992;9.228;2023-07-13T08:51:49;100268.88;;;22.89;72.22
21504;BME280;10913;51.992;9.228;2023-07-13T08:54:30;100253.97;;;23.14;70.82
21504;BME280;10913;51.992;9.228;2023-07-13T08:57:00;100248.56;;;23.44;70.35
21504;BME280;10913;51.992;9.228;2023-07-13T08:59:30;100253.19;;;23.72;70.88
21504;BME280;10913;51.992;9.228;2023-07-13T09:02:04;100244.13;;;23.73;69.84
21504;BME280;10913;51.992;9.228;2023-07-13T09:04:42;100256.25;;;23.80;69.26
21504;BME280;10913;51.992;9.228;2023-07-13T09:07:24;100241.81;;;23.81;69.12
21504;BME280;10913;51.992;9.228;2023-07-13T09:15:45;100248.19;;;23.94;69.91
21504;BME280;10913;51.992;9.228;2023-07-13T09:23:12;100251.84;;;24.07;67.69
21504;BME280;10913;51.992;9.228;2023-07-13T09:25:40;100249.53;;;24.15;66.67
21504;BME280;10913;51.992;9.228;2023-07-13T09:28:20;100245.25;;;24.39;67.20
21504;BME280;10913;51.992;9.228;2023-07-13T09:33:35;100251.09;;;24.75;66.77
21504;BME280;10913;51.992;9.228;2023-07-13T09:36:01;100246.75;;;24.99;65.83
21504;BME280;10913;51.992;9.228;2023-07-13T09:38:29;100254.53;;;25.18;65.85
21504;BME280;10913;51.992;9.228;2023-07-13T09:43:39;100250.28;;;25.14;64.75
21504;BME280;10913;51.992;9.228;2023-07-13T09:46:04;100245.66;;;25.16;64.56
21504;BME280;10913;51.992;9.228;2023-07-13T09:48:35;100245.84;;;25.13;64.95
21504;BME280;10913;51.992;9.228;2023-07-13T09:51:13;100251.53;;;24.95;64.97
21504;BME280;10913;51.992;9.228;2023-07-13T09:53:41;100257.69;;;24.97;65.01
21504;BME280;10913;51.992;9.228;2023-07-13T09:56:19;100248.34;;;25.16;65.37
21504;BME280;10913;51.992;9.228;2023-07-13T09:58:45;100244.53;;;25.05;63.79
21504;BME280;10913;51.992;9.228;2023-07-13T10:01:10;100250.38;;;24.85;64.64
21504;BME280;10913;51.992;9.228;2023-07-13T10:03:36;100253.69;;;24.76;66.20
21504;BME280;10913;51.992;9.228;2023-07-13T10:06:19;100245.78;;;24.73;64.85
21504;BME280;10913;51.992;9.228;2023-07-13T10:08:46;100248.47;;;24.73;64.51
21504;BME280;10913;51.992;9.228;2023-07-13T10:11:27;100252.50;;;24.80;64.88
21504;BME280;10913;51.992;9.228;2023-07-13T10:14:01;100252.75;;;24.63;64.99
21504;BME280;10913;51.992;9.228;2023-07-13T10:16:34;100250.25;;;24.60;65.48
21504;BME280;10913;51.992;9.228;2023-07-13T10:19:09;100250.47;;;24.84;67.21
21504;BME280;10913;51.992;9.228;2023-07-13T10:21:50;100235.03;;;25.13;67.08
21504;BME280;10913;51.992;9.228;2023-07-13T10:24:29;100241.72;;;25.20;65.62
21504;BME280;10913;51.992;9.228;2023-07-13T10:27:16;100249.13;;;25.18;64.74
21504;BME280;10913;51.992;9.228;2023-07-13T10:29:50;100257.34;;;25.16;64.78
21504;BME280;10913;51.992;9.228;2023-07-13T10:32:19;100252.56;;;25.20;64.65
21504;BME280;10913;51.992;9.228;2023-07-13T10:34:47;100258.41;;;25.14;64.41
21504;BME280;10913;51.992;9.228;2023-07-13T10:37:22;100263.81;;;25.14;64.79
21504;BME280;10913;51.992;9.228;2023-07-13T10:39:50;100270.03;;;25.01;63.28
21504;BME280;10913;51.992;9.228;2023-07-13T10:42:28;100263.59;;;25.17;64.65
21504;BME280;10913;51.992;9.228;2023-07-13T10:44:54;100264.94;;;24.97;63.43
21504;BME280;10913;51.992;9.228;2023-07-13T10:47:20;100260.25;;;25.13;63.30
21504;BME280;10913;51.992;9.228;2023-07-13T10:49:47;100255.00;;;25.37;63.80
21504;BME280;10913;51.992;9.228;2023-07-13T10:53:00;100259.84;;;25.32;62.31
21504;BME280;10913;51.992;9.228;2023-07-13T10:58:12;100254.34;;;25.59;63.55
21504;BME280;10913;51.992;9.228;2023-07-13T11:03:36;100257.97;;;26.10;62.08
21504;BME280;10913;51.992;9.228;2023-07-13T11:06:09;100273.03;;;26.01;61.09
21504;BME280;10913;51.992;9.228;2023-07-13T11:08:37;100265.47;;;25.94;59.86
21504;BME280;10913;51.992;9.228;2023-07-13T11:11:03;100255.69;;;25.79;59.95
21504;BME280;10913;51.992;9.228;2023-07-13T11:18:47;100264.59;;;25.81;61.35
21504;BME280;10913;51.992;9.228;2023-07-13T11:21:25;100265.03;;;25.87;61.71
21504;BME280;10913;51.992;9.228;2023-07-13T11:23:54;100260.91;;;25.94;61.44
21504;BME280;10913;51.992;9.228;2023-07-13T11:29:27;100265.66;;;25.65;60.64
21504;BME280;10913;51.992;9.228;2023-07-13T11:32:24;100268.94;;;25.44;61.45
21504;BME280;10913;51.992;9.228;2023-07-13T11:34:53;100271.44;;;25.34;61.87
21504;BME280;10913;51.992;9.228;2023-07-13T11:37:19;100270.50;;;25.21;61.71
21504;BME280;10913;51.992;9.228;2023-07-13T11:39:46;100278.00;;;25.17;62.01
21504;BME280;10913;51.992;9.228;2023-07-13T11:42:16;100273.09;;;25.10;62.54
21504;BME280;10913;51.992;9.228;2023-07-13T11:44:46;100269.81;;;25.04;62.84
21504;BME280;10913;51.992;9.228;2023-07-13T11:47:17;100261.88;;;25.16;62.98
21504;BME280;10913;51.992;9.228;2023-07-13T11:49:54;100270.88;;;25.29;63.14
21504;BME280;10913;51.992;9.228;2023-07-13T11:52:24;100259.97;;;25.43;63.10
21504;BME280;10913;51.992;9.228;2023-07-13T11:54:54;100261.91;;;25.41;61.43
21504;BME280;10913;51.992;9.228;2023-07-13T11:57:29;100248.94;;;25.33;61.58
21504;BME280;10913;51.992;9.228;2023-07-13T12:00:12;100249.13;;;25.30;62.22
21504;BME280;10913;51.992;9.228;2023-07-13T12:02:43;100248.56;;;25.13;61.71
21504;BME280;10913;51.992;9.228;2023-07-13T12:05:13;100252.44;;;25.09;61.77
21504;BME280;10913;51.992;9.228;2023-07-13T12:07:40;100255.81;;;25.25;62.61
21504;BME280;10913;51.992;9.228;2023-07-13T12:12:35;100254.00;;;25.38;61.92
21504;BME280;10913;51.992;9.228;2023-07-13T12:15:06;100245.78;;;25.39;61.75
21504;BME280;10913;51.992;9.228;2023-07-13T12:17:31;100246.53;;;25.29;60.94
21504;BME280;10913;51.992;9.228;2023-07-13T12:19:59;100255.75;;;24.99;60.91
21504;BME280;10913;51.992;9.228;2023-07-13T12:22:25;100260.84;;;24.77;61.66
21504;BME280;10913;51.992;9.228;2023-07-13T12:24:52;100262.13;;;24.57;62.38
21504;BME280;10913;51.992;9.228;2023-07-13T12:27:22;100259.13;;;24.62;63.54
21504;BME280;10913;51.992;9.228;2023-07-13T12:35:29;100261.66;;;24.92;62.93
21504;BME280;10913;51.992;9.228;2023-07-13T12:37:57;100263.13;;;24.97;62.29
21504;BME280;10913;51.992;9.228;2023-07-13T12:40:28;100266.44;;;25.01;62.62
21504;BME280;10913;51.992;9.228;2023-07-13T12:42:57;100268.63;;;24.96;61.43
21504;BME280;10913;51.992;9.228;2023-07-13T12:45:25;100260.00;;;24.89;61.58
21504;BME280;10913;51.992;9.228;2023-07-13T12:47:59;100277.25;;;24.74;61.66
21504;BME280;10913;51.992;9.228;2023-07-13T12:50:36;100274.34;;;24.63;62.71
21504;BME280;10913;51.992;9.228;2023-07-13T12:53:05;100277.34;;;24.58;64.10
21504;BME280;10913;51.992;9.228;2023-07-13T12:55:50;100272.91;;;24.71;63.87
21504;BME280;10913;51.992;9.228;2023-07-13T12:58:39;100258.66;;;24.82;63.47
21504;BME280;10913;51.992;9.228;2023-07-13T13:01:10;100247.09;;;24.94;63.44
21504;BME280;10913;51.992;9.228;2023-07-13T13:03:45;100256.13;;;24.93;63.21
21504;BME280;10913;51.992;9.228;2023-07-13T13:08:50;100251.25;;;25.13;64.26
21504;BME280;10913;51.992;9.228;2023-07-13T13:11:16;100247.00;;;25.35;63.87
21504;BME280;10913;51.992;9.228;2023-07-13T13:13:42;100247.41;;;25.42;62.16
21504;BME280;10913;51.992;9.228;2023-07-13T13:16:17;100246.03;;;25.49;62.31
21504;BME280;10913;51.992;9.228;2023-07-13T13:18:44;100247.34;;;25.56;61.98
21504;BME280;10913;51.992;9.228;2023-07-13T13:21:10;100252.50;;;25.59;61.55
21504;BME280;10913;51.992;9.228;2023-07-13T13:23:36;100256.78;;;25.63;61.83
21504;BME280;10913;51.992;9.228;2023-07-13T13:26:02;100265.66;;;25.78;60.74
21504;BME280;10913;51.992;9.228;2023-07-13T13:28:28;100256.59;;;25.92;60.44
21504;BME280;10913;51.992;9.228;2023-07-13T13:30:54;100253.00;;;26.04;60.76
21504;BME280;10913;51.992;9.228;2023-07-13T13:33:21;100263.84;;;26.17;59.91
21504;BME280;10913;51.992;9.228;2023-07-13T13:35:47;100284.50;;;26.05;60.18